createdAt,value
2023-04-18T00:00:55.840Z,12.07
2023-04-18T00:03:23.726Z,10.63
2023-04-18T00:05:50.943Z,11.45
2023-04-18T00:08:17.996Z,10.65
2023-04-18T00:10:45.096Z,11.80
2023-04-18T00:13:12.468Z,11.90
2023-04-18T00:15:41.714Z,10.75
2023-04-18T00:18:08.957Z,11.35
2023-04-18T00:20:38.949Z,11.75
2023-04-18T00:23:06.325Z,11.63
2023-04-18T00:25:33.640Z,11.20
2023-04-18T00:28:00.726Z,12.57
2023-04-18T00:30:28.203Z,11.43
2023-04-18T00:32:56.651Z,11.15
2023-04-18T00:35:25.187Z,12.20
2023-04-18T00:37:52.346Z,12.50
2023-04-18T00:40:19.473Z,10.75
2023-04-18T00:42:46.513Z,12.32
2023-04-18T00:45:14.518Z,11.75
2023-04-18T00:47:41.667Z,11.43
2023-04-18T00:50:11.042Z,11.67
2023-04-18T00:52:38.270Z,11.50
2023-04-18T00:55:07.832Z,10.30
2023-04-18T00:57:36.140Z,11.90
2023-04-18T01:00:10.413Z,10.60
2023-04-18T01:02:40.066Z,11.37
2023-04-18T01:05:08.733Z,10.70
2023-04-18T01:07:40.740Z,11.25
2023-04-18T01:10:09.498Z,10.65
2023-04-18T01:12:37.694Z,12.70
2023-04-18T01:15:06.165Z,11.20
2023-04-18T01:17:35.522Z,10.88
2023-04-18T01:20:06.284Z,11.00
2023-04-18T01:22:33.906Z,11.07
2023-04-18T01:25:01.029Z,11.52
2023-04-18T01:27:28.132Z,12.07
2023-04-18T01:29:55.328Z,10.25
2023-04-18T01:32:22.676Z,11.07
2023-04-18T01:34:49.961Z,11.13
2023-04-18T01:37:17.656Z,11.13
2023-04-18T01:39:45.156Z,11.83
2023-04-18T01:42:12.241Z,12.23
2023-04-18T01:44:39.311Z,10.55
2023-04-18T01:47:06.494Z,12.43
2023-04-18T01:49:33.640Z,11.77
2023-04-18T01:52:00.727Z,11.63
2023-04-18T01:54:27.838Z,11.25
2023-04-18T01:56:54.890Z,11.75
2023-04-18T01:59:22.474Z,12.65
2023-04-18T02:01:49.603Z,10.43
2023-04-18T02:04:18.044Z,10.50
2023-04-18T02:06:46.838Z,12.23
2023-04-18T02:09:13.889Z,10.93
2023-04-18T02:11:43.190Z,12.07
2023-04-18T02:14:10.484Z,11.07
2023-04-18T02:16:38.789Z,11.37
2023-04-18T02:19:06.368Z,9.43
2023-04-18T02:21:34.472Z,11.40
2023-04-18T02:24:01.605Z,9.55
2023-04-18T02:26:28.680Z,10.77
2023-04-18T02:28:58.712Z,10.90
2023-04-18T02:31:25.964Z,10.18
2023-04-18T02:33:53.188Z,10.27
2023-04-18T02:36:22.084Z,11.35
2023-04-18T02:38:49.136Z,10.57
2023-04-18T02:41:19.480Z,9.43
2023-04-18T02:43:47.297Z,11.45
2023-04-18T02:46:16.369Z,11.20
2023-04-18T02:48:46.424Z,11.75
2023-04-18T02:51:14.884Z,12.00
2023-04-18T02:53:42.886Z,11.53
2023-04-18T02:56:10.620Z,10.68
2023-04-18T02:58:56.216Z,10.77
2023-04-18T03:01:52.456Z,10.57
2023-04-18T03:04:21.932Z,11.20
2023-04-18T03:06:57.893Z,10.13
2023-04-18T03:09:26.255Z,10.75
2023-04-18T03:11:58.582Z,10.27
2023-04-18T03:14:28.091Z,11.20
2023-04-18T03:16:56.200Z,10.52
2023-04-18T03:19:28.423Z,10.10
2023-04-18T03:21:56.731Z,11.90
2023-04-18T03:24:23.876Z,12.25
2023-04-18T03:26:53.826Z,12.18
2023-04-18T03:29:24.817Z,11.88
2023-04-18T03:31:51.939Z,11.57
2023-04-18T03:34:19.411Z,12.10
2023-04-18T03:36:48.196Z,11.00
2023-04-18T03:39:15.741Z,11.68
2023-04-18T03:41:43.028Z,10.90
2023-04-18T03:44:10.713Z,11.17
2023-04-18T03:46:40.322Z,10.85
2023-04-18T03:49:09.116Z,10.07
2023-04-18T03:51:50.068Z,11.38
2023-04-18T03:54:18.782Z,10.35
2023-04-18T03:56:46.278Z,9.93
2023-04-18T03:59:15.652Z,11.27
2023-04-18T04:01:46.480Z,10.68
2023-04-18T04:04:15.439Z,12.00
2023-04-18T04:06:43.212Z,10.18
2023-04-18T04:09:10.344Z,11.33
2023-04-18T04:11:38.664Z,11.60
2023-04-18T04:14:08.410Z,11.50
2023-04-18T04:16:40.492Z,10.55
2023-04-18T04:19:08.636Z,9.70
2023-04-18T04:21:42.095Z,9.93
2023-04-18T04:24:13.819Z,9.68
2023-04-18T04:26:45.142Z,9.90
2023-04-18T04:29:16.381Z,10.25
2023-04-18T04:31:45.374Z,8.90
2023-04-18T04:34:16.763Z,9.23
2023-04-18T04:36:44.325Z,9.40
2023-04-18T04:39:14.831Z,8.50
2023-04-18T04:42:05.535Z,9.43
2023-04-18T04:44:43.796Z,9.20
2023-04-18T04:47:11.032Z,10.00
2023-04-18T04:49:39.606Z,9.88
2023-04-18T04:52:07.023Z,10.32
2023-04-18T04:54:36.420Z,10.05
2023-04-18T04:57:05.982Z,9.65
2023-04-18T04:59:33.064Z,9.83
2023-04-18T05:02:00.886Z,9.23
2023-04-18T05:04:28.211Z,10.80
2023-04-18T05:06:57.642Z,9.15
2023-04-18T05:09:24.711Z,8.70
2023-04-18T05:11:51.853Z,9.03
2023-04-18T05:14:20.733Z,8.80
2023-04-18T05:16:47.856Z,7.45
2023-04-18T05:19:18.381Z,9.40
2023-04-18T05:21:45.608Z,8.73
2023-04-18T05:24:12.951Z,8.43
2023-04-18T05:26:40.624Z,8.82
2023-04-18T05:29:07.729Z,8.93
2023-04-18T05:31:35.327Z,7.45
2023-04-18T05:34:07.339Z,8.00
2023-04-18T05:36:52.711Z,7.70
2023-04-18T05:39:28.191Z,9.20
2023-04-18T05:41:59.621Z,8.80
2023-04-18T05:44:27.680Z,7.20
2023-04-18T05:46:56.239Z,7.25
2023-04-18T05:49:25.787Z,7.33
2023-04-18T05:52:06.231Z,7.95
2023-04-18T05:54:33.598Z,7.13
2023-04-18T05:57:02.174Z,6.88
2023-04-18T05:59:31.288Z,8.25
2023-04-18T06:02:03.228Z,7.53
2023-04-18T06:04:30.902Z,4.75
2023-04-18T06:06:58.475Z,6.07
2023-04-18T06:09:26.048Z,7.70
2023-04-18T06:11:53.442Z,8.30
2023-04-18T06:14:21.019Z,6.50
2023-04-18T06:16:48.660Z,6.90
2023-04-18T06:19:15.958Z,7.18
2023-04-18T06:21:43.187Z,6.70
2023-04-18T06:24:10.624Z,7.03
2023-04-18T06:26:38.031Z,7.43
2023-04-18T06:29:05.355Z,7.10
2023-04-18T06:31:32.503Z,6.65
2023-04-18T06:33:59.779Z,6.22
2023-04-18T06:36:27.576Z,6.22
2023-04-18T06:38:55.677Z,6.33
2023-04-18T06:41:25.851Z,6.50
2023-04-18T06:44:03.775Z,5.72
2023-04-18T06:46:34.027Z,6.70
2023-04-18T06:49:04.196Z,5.55
2023-04-18T06:51:31.742Z,6.10
2023-04-18T06:54:01.748Z,5.03
2023-04-18T06:56:29.683Z,6.47
2023-04-18T06:58:56.906Z,6.32
2023-04-18T07:01:24.102Z,6.15
2023-04-18T07:03:51.289Z,5.97
2023-04-18T07:06:18.819Z,6.22
2023-04-18T07:08:46.056Z,6.97
2023-04-18T07:11:18.578Z,6.80
2023-04-18T07:13:47.374Z,6.32
2023-04-18T07:16:14.607Z,6.30
2023-04-18T07:18:41.749Z,6.80
2023-04-18T07:21:08.827Z,6.47
2023-04-18T07:23:36.626Z,6.28
2023-04-18T07:26:05.780Z,6.25
2023-04-18T07:28:33.658Z,6.37
2023-04-18T07:31:03.108Z,6.72
2023-04-18T07:33:35.066Z,7.32
2023-04-18T07:36:05.611Z,7.05
2023-04-18T07:38:35.313Z,7.13
2023-04-18T07:41:03.697Z,6.60
2023-04-18T07:43:31.518Z,6.32
2023-04-18T07:45:58.826Z,6.38
2023-04-18T07:48:25.941Z,6.88
2023-04-18T07:50:54.206Z,7.15
2023-04-18T07:53:21.277Z,6.73
2023-04-18T07:55:48.559Z,6.82
2023-04-18T07:58:15.857Z,6.18
2023-04-18T08:00:44.780Z,7.50
2023-04-18T08:03:13.492Z,6.40
2023-04-18T08:05:42.906Z,6.90
2023-04-18T08:08:12.119Z,7.53
2023-04-18T08:10:41.500Z,6.25
2023-04-18T08:13:08.622Z,8.45
2023-04-18T08:15:35.835Z,8.27
2023-04-18T08:18:03.120Z,9.00
2023-04-18T08:20:30.452Z,8.30
2023-04-18T08:23:07.611Z,8.00
2023-04-18T08:25:36.449Z,7.57
2023-04-18T08:28:04.112Z,8.30
2023-04-18T08:30:31.784Z,7.47
2023-04-18T08:33:00.912Z,7.50
2023-04-18T08:35:28.350Z,8.63
2023-04-18T08:37:55.575Z,8.88
2023-04-18T08:40:23.082Z,8.57
2023-04-18T08:42:53.280Z,9.90
2023-04-18T08:45:22.904Z,8.68
2023-04-18T08:47:57.228Z,8.07
2023-04-18T08:50:24.554Z,7.50
2023-04-18T08:52:58.462Z,8.13
2023-04-18T08:55:28.206Z,6.97
2023-04-18T08:57:58.283Z,8.05
2023-04-18T09:00:27.662Z,7.82
2023-04-18T09:02:59.413Z,8.45
2023-04-18T09:05:35.741Z,7.93
2023-04-18T09:08:24.131Z,8.47
2023-04-18T09:10:54.006Z,7.38
2023-04-18T09:13:39.739Z,8.88
2023-04-18T09:16:07.281Z,8.30
2023-04-18T09:18:37.117Z,9.20
2023-04-18T09:21:22.512Z,7.93
2023-04-18T09:24:21.219Z,7.45
2023-04-18T09:26:51.976Z,8.25
2023-04-18T09:29:22.584Z,8.25
2023-04-18T09:32:01.531Z,7.45
2023-04-18T09:34:34.441Z,7.27
2023-04-18T09:37:11.297Z,7.38
2023-04-18T09:39:47.672Z,8.25
2023-04-18T09:42:20.138Z,7.13
2023-04-18T09:45:07.788Z,7.45
2023-04-18T09:47:36.843Z,8.00
2023-04-18T09:50:11.986Z,8.82
2023-04-18T09:52:43.578Z,7.68
2023-04-18T09:55:14.855Z,8.77
2023-04-18T09:57:49.490Z,8.15
2023-04-18T10:00:27.414Z,8.30
2023-04-18T10:03:05.827Z,8.05
2023-04-18T10:05:40.753Z,8.90
2023-04-18T10:08:11.431Z,8.35
2023-04-18T10:10:42.555Z,8.63
2023-04-18T10:13:14.215Z,6.70
2023-04-18T10:15:54.955Z,8.82
2023-04-18T10:18:31.043Z,7.90
2023-04-18T10:21:12.209Z,8.45
2023-04-18T10:23:50.874Z,8.43
2023-04-18T10:26:19.436Z,7.40
2023-04-18T10:28:59.563Z,7.85
2023-04-18T10:31:46.942Z,8.10
2023-04-18T10:34:20.822Z,9.00
2023-04-18T10:37:05.717Z,7.45
2023-04-18T10:40:17.845Z,7.97
2023-04-18T10:42:48.425Z,8.02
2023-04-18T10:45:24.857Z,7.85
2023-04-18T10:48:25.830Z,8.45
2023-04-18T10:51:21.910Z,8.38
2023-04-18T10:54:02.898Z,8.50
2023-04-18T10:56:40.660Z,8.27
2023-04-18T10:59:25.935Z,9.35
2023-04-18T11:02:16.266Z,8.43
2023-04-18T11:04:51.453Z,7.75
2023-04-18T11:07:53.297Z,8.87
2023-04-18T11:10:30.650Z,7.57
2023-04-18T11:13:06.841Z,6.47
2023-04-18T11:15:46.014Z,6.88
2023-04-18T11:18:26.087Z,7.32
2023-04-18T11:21:30.718Z,7.33
2023-04-18T11:24:00.367Z,6.82
2023-04-18T11:26:57.077Z,7.70
2023-04-18T11:29:34.061Z,7.85
2023-04-18T11:32:16.216Z,7.95
2023-04-18T11:35:14.985Z,7.60
2023-04-18T11:38:28.793Z,8.35
2023-04-18T11:41:07.050Z,8.35
2023-04-18T11:44:01.466Z,8.48
2023-04-18T11:46:43.541Z,8.65
2023-04-18T11:49:35.445Z,8.37
2023-04-18T11:55:31.561Z,6.53
2023-04-18T11:58:28.470Z,7.43
2023-04-18T12:01:19.729Z,6.70
2023-04-18T12:04:08.492Z,6.30
2023-04-18T12:07:06.971Z,7.20
2023-04-18T12:09:43.082Z,6.20
2023-04-18T12:12:14.773Z,6.85
2023-04-18T12:15:00.980Z,5.95
2023-04-18T12:17:38.642Z,6.23
2023-04-18T12:20:38.770Z,6.57
2023-04-18T12:23:13.802Z,6.03
2023-04-18T12:25:54.521Z,5.80
2023-04-18T12:28:27.197Z,6.50
2023-04-18T12:31:40.616Z,6.60
2023-04-18T12:34:19.582Z,5.68
2023-04-18T12:37:10.102Z,5.65
2023-04-18T12:39:51.619Z,5.82
2023-04-18T12:42:44.512Z,5.78
2023-04-18T12:45:58.433Z,5.40
2023-04-18T12:48:34.344Z,6.03
2023-04-18T12:54:39.366Z,5.95
2023-04-18T12:57:24.367Z,5.43
2023-04-18T13:00:01.706Z,5.70
2023-04-18T13:02:37.512Z,4.85
2023-04-18T13:05:20.945Z,4.45
2023-04-18T13:08:29.922Z,4.60
2023-04-18T13:11:04.637Z,4.38
2023-04-18T13:13:51.493Z,4.77
2023-04-18T13:16:36.444Z,4.55
2023-04-18T13:19:18.690Z,4.70
2023-04-18T13:22:12.026Z,4.75
2023-04-18T13:25:18.405Z,4.05
2023-04-18T13:28:11.974Z,4.90
2023-04-18T13:31:48.228Z,4.70
2023-04-18T13:33:53.739Z,4.82
2023-04-18T13:36:42.221Z,4.40
2023-04-18T13:39:24.953Z,4.53
2023-04-18T13:42:17.354Z,4.30
2023-04-18T13:46:15.447Z,4.80
2023-04-18T13:49:13.248Z,5.18
2023-04-18T13:51:50.147Z,4.65
2023-04-18T13:54:51.233Z,5.82
2023-04-18T13:57:57.133Z,5.80
2023-04-18T14:01:29.486Z,6.25
2023-04-18T14:04:15.932Z,6.72
2023-04-18T14:07:06.730Z,7.53
2023-04-18T14:10:29.469Z,7.03
2023-04-18T14:16:36.201Z,8.60
2023-04-18T14:19:56.044Z,8.27
2023-04-18T14:25:56.917Z,8.27
2023-04-18T14:28:43.908Z,6.70
2023-04-18T14:31:29.718Z,7.20
2023-04-18T14:34:42.613Z,5.63
2023-04-18T14:37:45.991Z,6.55
2023-04-18T14:40:29.883Z,6.95
2023-04-18T14:43:09.732Z,6.57
2023-04-18T14:46:07.418Z,6.80
2023-04-18T14:48:52.766Z,6.38
2023-04-18T14:51:28.521Z,6.90
2023-04-18T14:54:40.100Z,7.10
2023-04-18T14:57:39.282Z,6.70
2023-04-18T15:01:13.154Z,7.78
2023-04-18T15:04:26.917Z,5.82
2023-04-18T15:07:09.703Z,6.68
2023-04-18T15:10:31.867Z,6.82
2023-04-18T15:13:14.470Z,6.63
2023-04-18T15:16:06.384Z,7.43
2023-04-18T15:18:46.010Z,6.93
2023-04-18T15:24:36.923Z,7.45
2023-04-18T15:27:14.168Z,7.27
2023-04-18T15:30:37.655Z,7.40
2023-04-18T15:33:30.500Z,6.60
2023-04-18T15:36:20.473Z,7.30
2023-04-18T15:38:59.732Z,6.68
2023-04-18T15:41:54.237Z,6.67
2023-04-18T15:44:32.235Z,7.40
2023-04-18T15:47:04.718Z,7.30
2023-04-18T15:49:41.461Z,6.95
2023-04-18T15:52:21.465Z,7.53
2023-04-18T15:55:56.372Z,7.47
2023-04-18T15:58:03.250Z,7.70
2023-04-18T16:00:35.994Z,7.22
2023-04-18T16:03:04.935Z,7.72
2023-04-18T16:05:34.454Z,7.40
2023-04-18T16:08:06.173Z,8.17
2023-04-18T16:10:41.934Z,7.00
2023-04-18T16:13:11.719Z,8.13
2023-04-18T16:15:41.677Z,7.18
2023-04-18T16:18:11.462Z,6.85
2023-04-18T16:20:38.621Z,7.57
2023-04-18T16:23:05.959Z,7.70
2023-04-18T16:25:33.733Z,8.60
2023-04-18T16:28:01.412Z,8.48
2023-04-18T16:30:29.254Z,7.68
2023-04-18T16:32:57.409Z,8.60
2023-04-18T16:35:26.321Z,7.50
2023-04-18T16:37:56.487Z,7.88
2023-04-18T16:40:28.813Z,7.40
2023-04-18T16:43:00.534Z,7.43
2023-04-18T16:45:29.708Z,7.47
2023-04-18T16:48:01.851Z,7.13
2023-04-18T16:50:29.308Z,6.90
2023-04-18T16:52:56.499Z,7.18
2023-04-18T16:55:23.852Z,7.10
2023-04-18T16:57:51.182Z,7.03
2023-04-18T17:00:19.029Z,7.57
2023-04-18T17:02:47.095Z,7.10
2023-04-18T17:05:14.479Z,7.20
2023-04-18T17:07:41.515Z,6.93
2023-04-18T17:10:10.144Z,6.80
2023-04-18T17:12:37.616Z,7.20
2023-04-18T17:15:05.364Z,7.13
2023-04-18T17:17:32.653Z,6.90
2023-04-18T17:19:59.716Z,7.18
2023-04-18T17:22:27.004Z,7.67
2023-04-18T17:24:54.113Z,7.70
2023-04-18T17:27:21.161Z,8.15
2023-04-18T17:29:48.252Z,7.68
2023-04-18T17:32:15.592Z,7.53
2023-04-18T17:34:42.617Z,7.80
2023-04-18T17:37:11.063Z,7.97
2023-04-18T17:39:38.983Z,8.00
2023-04-18T17:42:06.118Z,8.90
2023-04-18T17:44:33.269Z,8.70
2023-04-18T17:47:01.953Z,8.17
2023-04-18T17:49:34.517Z,9.20
2023-04-18T17:52:02.534Z,8.38
2023-04-18T17:54:30.028Z,8.75
2023-04-18T17:56:57.904Z,8.85
2023-04-18T17:59:25.067Z,9.03
2023-04-18T18:01:52.208Z,8.93
2023-04-18T18:04:20.278Z,9.13
2023-04-18T18:06:57.975Z,9.40
2023-04-18T18:09:25.199Z,8.75
2023-04-18T18:11:54.682Z,9.43
2023-04-18T18:14:23.325Z,8.30
2023-04-18T18:16:50.600Z,9.25
2023-04-18T18:19:17.735Z,7.63
2023-04-18T18:21:44.840Z,8.95
2023-04-18T18:24:11.934Z,8.93
2023-04-18T18:26:39.008Z,9.80
2023-04-18T18:29:09.412Z,9.68
2023-04-18T18:31:37.118Z,9.10
2023-04-18T18:34:05.051Z,10.25
2023-04-18T18:36:32.211Z,9.50
2023-04-18T18:38:59.249Z,9.88
2023-04-18T18:41:26.313Z,9.10
2023-04-18T18:43:53.453Z,9.55
2023-04-18T18:46:20.676Z,9.27
2023-04-18T18:48:49.133Z,9.57
2023-04-18T18:51:19.412Z,10.45
2023-04-18T18:53:46.972Z,10.07
2023-04-18T18:56:14.632Z,10.93
2023-04-18T18:58:43.728Z,9.63
2023-04-18T19:01:13.865Z,9.57
2023-04-18T19:03:41.255Z,9.95
2023-04-18T19:06:08.540Z,10.07
2023-04-18T19:08:35.836Z,10.60
2023-04-18T19:11:02.910Z,9.88
2023-04-18T19:13:30.044Z,10.00
2023-04-18T19:15:57.333Z,10.35
2023-04-18T19:18:24.512Z,10.95
2023-04-18T19:20:51.561Z,11.23
2023-04-18T19:23:19.376Z,10.52
2023-04-18T19:25:46.995Z,11.40
2023-04-18T19:28:14.453Z,10.23
2023-04-18T19:30:42.658Z,10.43
2023-04-18T19:33:10.158Z,9.77
2023-04-18T19:35:38.029Z,9.85
2023-04-18T19:38:05.297Z,10.83
2023-04-18T19:40:32.402Z,10.00
2023-04-18T19:42:59.474Z,10.75
2023-04-18T19:45:26.771Z,10.20
2023-04-18T19:47:53.903Z,9.88
2023-04-18T19:50:21.110Z,10.27
2023-04-18T19:52:48.181Z,9.55
2023-04-18T19:55:15.396Z,9.73
2023-04-18T19:57:43.657Z,10.02
2023-04-18T20:00:13.332Z,11.10
2023-04-18T20:02:42.488Z,10.70
2023-04-18T20:05:10.304Z,9.68
2023-04-18T20:07:37.591Z,11.00
2023-04-18T20:10:05.447Z,10.98
2023-04-18T20:12:32.565Z,10.35
2023-04-18T20:14:59.802Z,10.17
2023-04-18T20:17:27.738Z,10.32
2023-04-18T20:19:57.020Z,11.68
2023-04-18T20:22:27.192Z,10.90
2023-04-18T20:24:57.127Z,10.43
2023-04-18T20:27:24.430Z,9.40
2023-04-18T20:29:51.711Z,10.23
2023-04-18T20:32:18.917Z,10.52
2023-04-18T20:34:46.703Z,9.50
2023-04-18T20:37:15.939Z,10.25
2023-04-18T20:39:43.000Z,10.47
2023-04-18T20:42:14.280Z,10.57
2023-04-18T20:44:46.888Z,10.75
2023-04-18T20:47:15.779Z,11.20
2023-04-18T20:49:43.339Z,9.68
2023-04-18T20:52:10.696Z,10.40
2023-04-18T20:54:37.944Z,10.30
2023-04-18T20:57:04.992Z,9.98
2023-04-18T20:59:32.122Z,10.70
2023-04-18T21:01:59.300Z,10.38
2023-04-18T21:04:27.244Z,9.03
2023-04-18T21:06:54.592Z,10.52
2023-04-18T21:09:21.760Z,10.43
2023-04-18T21:11:48.842Z,9.55
2023-04-18T21:14:17.167Z,9.00
2023-04-18T21:16:44.867Z,10.13
2023-04-18T21:19:12.174Z,10.10
2023-04-18T21:21:39.258Z,10.30
2023-04-18T21:24:06.836Z,11.13
2023-04-18T21:26:33.966Z,10.80
2023-04-18T21:29:04.789Z,9.70
2023-04-18T21:31:34.669Z,8.90
2023-04-18T21:34:04.652Z,10.20
2023-04-18T21:36:32.730Z,10.25
2023-04-18T21:39:01.348Z,10.00
2023-04-18T21:41:28.656Z,10.00
2023-04-18T21:43:55.751Z,10.65
2023-04-18T21:46:22.953Z,9.65
2023-04-18T21:48:50.322Z,10.13
2023-04-18T21:51:17.965Z,10.43
2023-04-18T21:53:45.064Z,10.83
2023-04-18T21:56:12.303Z,9.95
2023-04-18T21:58:39.626Z,10.40
2023-04-18T22:01:06.866Z,9.25
2023-04-18T22:03:34.620Z,10.90
2023-04-18T22:06:02.099Z,10.03
2023-04-18T22:08:29.554Z,10.27
2023-04-18T22:10:59.030Z,9.90
2023-04-18T22:13:30.133Z,10.65
2023-04-18T22:15:58.242Z,9.95
2023-04-18T22:18:25.715Z,10.57
2023-04-18T22:20:53.946Z,9.55
2023-04-18T22:23:21.045Z,9.77
2023-04-18T22:25:48.575Z,9.65
2023-04-18T22:28:15.976Z,9.25
2023-04-18T22:30:43.126Z,11.17
2023-04-18T22:33:10.236Z,9.93
2023-04-18T22:35:37.417Z,10.15
2023-04-18T22:38:04.594Z,10.50
2023-04-18T22:40:31.844Z,10.60
2023-04-18T22:42:58.891Z,10.60
2023-04-18T22:45:25.955Z,9.90
2023-04-18T22:47:53.373Z,9.07
2023-04-18T22:50:20.844Z,10.40
2023-04-18T22:52:48.143Z,10.05
2023-04-18T22:55:16.668Z,9.93
2023-04-18T22:57:43.904Z,10.43
2023-04-18T23:00:12.105Z,10.23
2023-04-18T23:02:39.273Z,10.13
2023-04-18T23:05:07.994Z,10.13
2023-04-18T23:07:35.253Z,10.17
2023-04-18T23:10:06.421Z,10.13
2023-04-18T23:12:33.754Z,10.35
2023-04-18T23:15:00.942Z,9.27
2023-04-18T23:17:28.015Z,10.00
2023-04-18T23:19:55.075Z,10.33
2023-04-18T23:22:24.131Z,10.10
2023-04-18T23:24:51.413Z,10.75
2023-04-18T23:27:19.453Z,9.95
2023-04-18T23:29:49.894Z,10.60
2023-04-18T23:32:16.999Z,9.90
2023-04-18T23:34:46.094Z,9.30
2023-04-18T23:37:13.172Z,9.30
2023-04-18T23:39:40.206Z,9.65
2023-04-18T23:42:07.439Z,10.35
2023-04-18T23:44:34.510Z,9.93
2023-04-18T23:47:01.624Z,10.52
2023-04-18T23:49:28.700Z,10.20
2023-04-18T23:51:55.807Z,10.45
2023-04-18T23:54:23.002Z,10.43
2023-04-18T23:56:50.039Z,10.17
2023-04-18T23:59:17.125Z,9.68
